createdAt,value
2023-04-03T00:00:47.779Z,102645.25
2023-04-03T00:03:15.766Z,102639.22
2023-04-03T00:05:43.661Z,102644.22
2023-04-03T00:08:11.469Z,102644.63
2023-04-03T00:10:39.439Z,102659.47
2023-04-03T00:13:08.400Z,102645.78
2023-04-03T00:15:37.969Z,102644.13
2023-04-03T00:18:06.533Z,102644.34
2023-04-03T00:20:35.365Z,102645.59
2023-04-03T00:23:03.911Z,102648.38
2023-04-03T00:25:31.400Z,102636.41
2023-04-03T00:27:58.866Z,102641.97
2023-04-03T00:30:26.524Z,102644.72
2023-04-03T00:32:55.644Z,102641.09
2023-04-03T00:35:24.302Z,102657.25
2023-04-03T00:37:53.992Z,102654.94
2023-04-03T00:40:23.224Z,102649.97
2023-04-03T00:42:54.290Z,102644.72
2023-04-03T00:45:29.838Z,102644.41
2023-04-03T00:48:01.403Z,102644.56
2023-04-03T00:50:30.400Z,102648.69
2023-04-03T00:52:59.407Z,102637.09
2023-04-03T00:55:27.199Z,102643.66
2023-04-03T00:57:56.089Z,102656.09
2023-04-03T01:00:25.133Z,102643.38
2023-04-03T01:02:53.341Z,102640.94
2023-04-03T01:05:23.575Z,102650.38
2023-04-03T01:07:53.132Z,102653.38
2023-04-03T01:10:21.833Z,102654.94
2023-04-03T01:12:51.236Z,102659.34
2023-04-03T01:15:20.657Z,102655.13
2023-04-03T01:17:49.533Z,102653.28
2023-04-03T01:20:40.540Z,102653.00
2023-04-03T01:23:19.973Z,102654.09
2023-04-03T01:25:50.658Z,102662.97
2023-04-03T01:28:21.369Z,102656.03
2023-04-03T01:30:53.072Z,102662.00
2023-04-03T01:33:22.092Z,102659.72
2023-04-03T01:35:49.552Z,102664.53
2023-04-03T01:38:17.117Z,102663.34
2023-04-03T01:40:44.553Z,102665.66
2023-04-03T01:43:12.017Z,102670.19
2023-04-03T01:45:39.600Z,102675.81
2023-04-03T01:48:07.224Z,102676.50
2023-04-03T01:50:36.183Z,102671.09
2023-04-03T01:53:03.679Z,102687.72
2023-04-03T01:55:31.068Z,102681.44
2023-04-03T01:57:59.481Z,102683.44
2023-04-03T02:00:27.664Z,102673.50
2023-04-03T02:02:55.425Z,102685.50
2023-04-03T02:05:23.073Z,102679.84
2023-04-03T02:07:51.868Z,102681.59
2023-04-03T02:10:19.506Z,102688.78
2023-04-03T02:12:48.516Z,102676.47
2023-04-03T02:15:16.331Z,102676.13
2023-04-03T02:17:43.872Z,102674.09
2023-04-03T02:20:11.900Z,102668.97
2023-04-03T02:22:39.334Z,102682.47
2023-04-03T02:25:08.777Z,102672.47
2023-04-03T02:27:36.515Z,102675.47
2023-04-03T02:30:04.479Z,102696.63
2023-04-03T02:32:31.958Z,102690.53
2023-04-03T02:34:59.416Z,102698.31
2023-04-03T02:37:26.888Z,102701.72
2023-04-03T02:39:54.345Z,102714.56
2023-04-03T02:42:23.069Z,102709.72
2023-04-03T02:44:50.504Z,102711.66
2023-04-03T02:47:17.962Z,102714.63
2023-04-03T02:49:46.893Z,102714.94
2023-04-03T02:52:14.641Z,102707.47
2023-04-03T02:54:42.380Z,102712.72
2023-04-03T02:57:10.600Z,102712.78
2023-04-03T02:59:41.465Z,102719.28
2023-04-03T03:02:09.263Z,102719.56
2023-04-03T03:04:37.521Z,102721.84
2023-04-03T03:07:05.384Z,102717.88
2023-04-03T03:09:32.846Z,102726.09
2023-04-03T03:12:00.536Z,102723.63
2023-04-03T03:14:28.022Z,102722.69
2023-04-03T03:16:56.758Z,102726.94
2023-04-03T03:19:24.224Z,102728.47
2023-04-03T03:21:52.042Z,102732.59
2023-04-03T03:24:19.548Z,102723.00
2023-04-03T03:26:46.988Z,102728.47
2023-04-03T03:29:14.415Z,102727.75
2023-04-03T03:31:41.970Z,102727.44
2023-04-03T03:34:10.942Z,102733.03
2023-04-03T03:36:38.387Z,102735.38
2023-04-03T03:39:06.050Z,102733.38
2023-04-03T03:41:33.499Z,102736.31
2023-04-03T03:44:00.934Z,102734.50
2023-04-03T03:46:28.408Z,102736.75
2023-04-03T03:48:55.876Z,102738.81
2023-04-03T03:51:24.644Z,102737.47
2023-04-03T03:53:52.084Z,102737.91
2023-04-03T03:56:19.514Z,102737.59
2023-04-03T03:58:46.998Z,102734.97
2023-04-03T04:01:14.453Z,102747.69
2023-04-03T04:03:42.067Z,102734.53
2023-04-03T04:06:09.534Z,102737.03
2023-04-03T04:08:38.311Z,102728.53
2023-04-03T04:11:05.740Z,102728.53
2023-04-03T04:13:33.146Z,102736.41
2023-04-03T04:16:00.590Z,102742.78
2023-04-03T04:18:28.056Z,102730.28
2023-04-03T04:20:55.660Z,102723.72
2023-04-03T04:23:23.141Z,102727.66
2023-04-03T04:25:53.030Z,102739.41
2023-04-03T04:28:20.493Z,102731.47
2023-04-03T04:30:47.974Z,102725.75
2023-04-03T04:33:15.899Z,102729.44
2023-04-03T04:35:44.383Z,102741.44
2023-04-03T04:38:11.887Z,102741.09
2023-04-03T04:40:39.328Z,102740.84
2023-04-03T04:43:08.063Z,102745.53
2023-04-03T04:45:35.804Z,102749.88
2023-04-03T04:48:03.554Z,102748.59
2023-04-03T04:50:31.144Z,102750.34
2023-04-03T04:52:58.567Z,102748.31
2023-04-03T04:55:26.256Z,102761.28
2023-04-03T04:57:53.701Z,102767.97
2023-04-03T05:00:23.283Z,102758.94
2023-04-03T05:02:50.755Z,102759.09
2023-04-03T05:05:18.338Z,102762.00
2023-04-03T05:07:45.900Z,102761.91
2023-04-03T05:10:13.388Z,102762.84
2023-04-03T05:12:41.234Z,102767.47
2023-04-03T05:15:09.980Z,102763.28
2023-04-03T05:17:38.713Z,102768.59
2023-04-03T05:20:07.658Z,102772.38
2023-04-03T05:22:35.251Z,102779.81
2023-04-03T05:25:02.766Z,102767.06
2023-04-03T05:27:30.233Z,102762.81
2023-04-03T05:29:58.681Z,102761.59
2023-04-03T05:32:27.909Z,102767.81
2023-04-03T05:34:56.924Z,102772.91
2023-04-03T05:37:24.976Z,102781.25
2023-04-03T05:39:52.531Z,102778.66
2023-04-03T05:42:19.948Z,102773.34
2023-04-03T05:44:48.176Z,102770.56
2023-04-03T05:47:15.625Z,102778.31
2023-04-03T05:49:43.128Z,102773.94
2023-04-03T05:52:22.355Z,102777.00
2023-04-03T05:54:50.149Z,102762.56
2023-04-03T05:57:18.022Z,102755.97
2023-04-03T05:59:46.270Z,102776.75
2023-04-03T06:02:15.619Z,102795.34
2023-04-03T06:04:43.299Z,102805.69
2023-04-03T06:07:16.455Z,102801.38
2023-04-03T06:09:44.406Z,102805.16
2023-04-03T06:12:12.292Z,102809.53
2023-04-03T06:14:39.844Z,102800.38
2023-04-03T06:17:08.183Z,102805.72
2023-04-03T06:19:35.729Z,102809.53
2023-04-03T06:22:03.916Z,102807.66
2023-04-03T06:24:33.344Z,102807.34
2023-04-03T06:27:00.852Z,102811.13
2023-04-03T06:29:28.291Z,102813.28
2023-04-03T06:31:55.909Z,102814.81
2023-04-03T06:34:23.519Z,102813.63
2023-04-03T06:36:51.651Z,102813.59
2023-04-03T06:39:27.341Z,102811.53
2023-04-03T06:41:56.271Z,102811.91
2023-04-03T06:44:23.760Z,102809.69
2023-04-03T06:46:51.208Z,102809.47
2023-04-03T06:49:18.626Z,102819.19
2023-04-03T06:51:46.112Z,102833.56
2023-04-03T06:54:13.668Z,102832.44
2023-04-03T07:00:04.343Z,102828.31
2023-04-03T07:02:33.251Z,102840.13
2023-04-03T07:05:00.677Z,102854.84
2023-04-03T07:07:28.141Z,102845.50
2023-04-03T07:09:55.769Z,102842.50
2023-04-03T07:12:23.183Z,102850.94
2023-04-03T07:14:50.631Z,102848.56
2023-04-03T07:17:18.564Z,102842.72
2023-04-03T07:19:47.415Z,102843.00
2023-04-03T07:22:14.832Z,102846.88
2023-04-03T07:24:42.293Z,102846.78
2023-04-03T07:27:09.752Z,102857.88
2023-04-03T07:29:37.602Z,102844.84
2023-04-03T07:32:05.430Z,102872.69
2023-04-03T07:34:33.573Z,102844.53
2023-04-03T07:37:03.468Z,102860.31
2023-04-03T07:39:31.060Z,102864.25
2023-04-03T07:41:58.452Z,102878.38
2023-04-03T07:44:26.302Z,102857.41
2023-04-03T07:46:53.762Z,102890.53
2023-04-03T07:49:21.260Z,102877.66
2023-04-03T07:51:49.530Z,102864.47
2023-04-03T07:54:18.268Z,102863.09
2023-04-03T07:56:46.081Z,102864.06
2023-04-03T07:59:13.515Z,102875.66
2023-04-03T08:01:41.017Z,102872.50
2023-04-03T08:04:08.710Z,102859.53
2023-04-03T08:06:45.562Z,102873.34
2023-04-03T08:09:14.434Z,102883.81
2023-04-03T08:11:43.311Z,102872.34
2023-04-03T08:14:16.396Z,102880.81
2023-04-03T08:16:44.623Z,102881.13
2023-04-03T08:19:18.918Z,102872.34
2023-04-03T08:21:52.632Z,102846.13
2023-04-03T08:24:20.037Z,102862.72
2023-04-03T08:26:48.785Z,102871.25
2023-04-03T08:29:16.176Z,102871.16
2023-04-03T08:31:43.843Z,102877.78
2023-04-03T08:34:12.355Z,102862.28
2023-04-03T08:36:39.761Z,102866.66
2023-04-03T08:39:07.450Z,102867.16
2023-04-03T08:41:36.788Z,102898.16
2023-04-03T08:44:17.239Z,102865.34
2023-04-03T08:47:06.261Z,102865.34
2023-04-03T08:49:37.468Z,102853.78
2023-04-03T08:52:12.097Z,102846.22
2023-04-03T08:54:51.703Z,102870.22
2023-04-03T08:57:24.717Z,102860.09
2023-04-03T08:59:53.991Z,102860.09
2023-04-03T09:02:35.357Z,102845.91
2023-04-03T09:05:12.200Z,102852.00
2023-04-03T09:07:44.623Z,102864.28
2023-04-03T09:10:14.070Z,102864.84
2023-04-03T09:12:44.486Z,102856.09
2023-04-03T09:15:27.811Z,102849.91
2023-04-03T09:18:04.902Z,102851.31
2023-04-03T09:20:43.389Z,102849.56
2023-04-03T09:23:22.550Z,102843.06
2023-04-03T09:25:52.212Z,102846.00
2023-04-03T09:28:19.629Z,102850.34
2023-04-03T09:30:48.356Z,102846.72
2023-04-03T09:33:16.194Z,102846.59
2023-04-03T09:35:48.215Z,102844.16
2023-04-03T09:38:19.654Z,102856.81
2023-04-03T09:40:49.375Z,102854.31
2023-04-03T09:43:29.082Z,102850.75
2023-04-03T09:46:19.422Z,102839.88
2023-04-03T09:49:08.325Z,102842.50
2023-04-03T09:51:37.765Z,102845.94
2023-04-03T09:54:28.153Z,102838.03
2023-04-03T09:56:57.655Z,102831.34
2023-04-03T09:59:25.782Z,102834.59
2023-04-03T10:02:03.797Z,102827.63
2023-04-03T10:04:41.230Z,102834.91
2023-04-03T10:07:33.840Z,102826.25
2023-04-03T10:10:04.985Z,102823.56
2023-04-03T10:12:32.434Z,102821.66
2023-04-03T10:15:01.521Z,102822.00
2023-04-03T10:17:54.865Z,102814.44
2023-04-03T10:20:32.829Z,102812.03
2023-04-03T10:23:14.558Z,102814.03
2023-04-03T10:25:50.022Z,102816.28
2023-04-03T10:28:27.356Z,102810.13
2023-04-03T10:31:02.840Z,102809.41
2023-04-03T10:33:47.723Z,102817.09
2023-04-03T10:36:26.203Z,102801.94
2023-04-03T10:39:02.874Z,102796.31
2023-04-03T10:41:42.113Z,102793.66
2023-04-03T10:44:18.560Z,102791.44
2023-04-03T10:46:50.845Z,102791.31
2023-04-03T10:49:30.660Z,102776.34
2023-04-03T10:52:06.050Z,102782.06
2023-04-03T10:54:39.896Z,102781.59
2023-04-03T10:57:13.049Z,102774.63
2023-04-03T10:59:45.899Z,102775.78
2023-04-03T11:02:23.091Z,102780.69
2023-04-03T11:04:55.446Z,102774.88
2023-04-03T11:07:26.516Z,102760.78
2023-04-03T11:09:59.756Z,102768.69
2023-04-03T11:12:33.636Z,102770.75
2023-04-03T11:15:03.912Z,102770.63
2023-04-03T11:17:37.754Z,102765.13
2023-04-03T11:20:17.478Z,102773.81
2023-04-03T11:22:50.918Z,102765.72
2023-04-03T11:25:23.246Z,102765.72
2023-04-03T11:27:54.651Z,102770.03
2023-04-03T11:30:27.129Z,102769.81
2023-04-03T11:33:24.429Z,102759.06
2023-04-03T11:35:56.306Z,102756.09
2023-04-03T11:38:28.048Z,102768.19
2023-04-03T11:40:57.845Z,102763.63
2023-04-03T11:43:28.280Z,102764.94
2023-04-03T11:46:00.148Z,102760.41
2023-04-03T11:48:54.197Z,102763.47
2023-04-03T11:51:43.718Z,102755.72
2023-04-03T11:54:47.189Z,102775.25
2023-04-03T11:57:45.637Z,102768.19
2023-04-03T12:00:51.881Z,102762.31
2023-04-03T12:03:56.873Z,102765.63
2023-04-03T12:07:13.564Z,102771.25
2023-04-03T12:10:30.948Z,102763.81
2023-04-03T12:13:00.728Z,102766.03
2023-04-03T12:15:48.830Z,102766.50
2023-04-03T12:18:53.335Z,102770.03
2023-04-03T12:21:22.924Z,102759.41
2023-04-03T12:24:15.515Z,102767.91
2023-04-03T12:26:49.097Z,102762.09
2023-04-03T12:29:22.486Z,102785.38
2023-04-03T12:32:08.382Z,102749.78
2023-04-03T12:34:56.834Z,102760.97
2023-04-03T12:37:42.056Z,102754.13
2023-04-03T12:40:21.488Z,102755.47
2023-04-03T12:43:08.520Z,102735.66
2023-04-03T12:45:45.150Z,102751.59
2023-04-03T12:48:17.047Z,102742.34
2023-04-03T12:50:47.459Z,102742.34
2023-04-03T12:53:18.624Z,102735.44
2023-04-03T12:55:47.467Z,102735.06
2023-04-03T12:58:17.734Z,102737.22
2023-04-03T13:00:45.149Z,102728.88
2023-04-03T13:03:24.829Z,102731.31
2023-04-03T13:05:52.832Z,102737.31
2023-04-03T13:08:21.674Z,102728.19
2023-04-03T13:10:56.955Z,102728.38
2023-04-03T13:13:24.906Z,102726.94
2023-04-03T13:15:53.718Z,102727.69
2023-04-03T13:18:30.913Z,102722.22
2023-04-03T13:21:03.498Z,102721.41
2023-04-03T13:23:32.316Z,102731.28
2023-04-03T13:26:04.397Z,102731.09
2023-04-03T13:28:33.713Z,102733.59
2023-04-03T13:31:05.501Z,102726.69
2023-04-03T13:33:38.743Z,102725.16
2023-04-03T13:36:09.910Z,102729.03
2023-04-03T13:38:37.530Z,102720.13
2023-04-03T13:41:25.116Z,102718.53
2023-04-03T13:43:53.774Z,102729.16
2023-04-03T13:46:28.034Z,102719.16
2023-04-03T13:48:58.148Z,102723.66
2023-04-03T13:51:27.728Z,102714.72
2023-04-03T13:53:56.884Z,102725.41
2023-04-03T13:56:32.750Z,102712.06
2023-04-03T13:59:05.865Z,102719.34
2023-04-03T14:01:52.469Z,102730.75
2023-04-03T14:04:22.502Z,102712.25
2023-04-03T14:06:51.182Z,102704.78
2023-04-03T14:09:20.993Z,102713.88
2023-04-03T14:11:52.513Z,102727.00
2023-04-03T14:14:22.759Z,102715.22
2023-04-03T14:16:55.121Z,102720.91
2023-04-03T14:19:25.701Z,102705.00
2023-04-03T14:21:54.490Z,102714.25
2023-04-03T14:24:23.328Z,102701.44
2023-04-03T14:26:54.341Z,102709.69
2023-04-03T14:29:23.387Z,102710.31
2023-04-03T14:32:00.441Z,102697.31
2023-04-03T14:34:35.224Z,102692.63
2023-04-03T14:37:02.790Z,102694.56
2023-04-03T14:39:31.175Z,102693.09
2023-04-03T14:41:59.897Z,102696.06
2023-04-03T14:44:27.272Z,102695.91
2023-04-03T14:46:57.048Z,102687.22
2023-04-03T14:49:29.057Z,102699.59
2023-04-03T14:51:57.602Z,102694.56
2023-04-03T14:54:28.770Z,102683.56
2023-04-03T14:57:14.683Z,102694.00
2023-04-03T14:59:44.155Z,102693.59
2023-04-03T15:02:27.179Z,102689.19
2023-04-03T15:04:54.967Z,102697.72
2023-04-03T15:07:22.891Z,102699.28
2023-04-03T15:09:50.655Z,102695.47
2023-04-03T15:12:18.695Z,102686.56
2023-04-03T15:14:53.561Z,102692.59
2023-04-03T15:17:28.500Z,102685.75
2023-04-03T15:19:56.049Z,102671.97
2023-04-03T15:22:23.555Z,102686.22
2023-04-03T15:24:50.995Z,102691.59
2023-04-03T15:27:18.742Z,102678.53
2023-04-03T15:29:47.682Z,102682.00
2023-04-03T15:32:15.395Z,102677.84
2023-04-03T15:34:43.217Z,102682.59
2023-04-03T15:37:10.827Z,102667.53
2023-04-03T15:39:38.291Z,102681.19
2023-04-03T15:42:07.178Z,102673.41
2023-04-03T15:44:36.114Z,102673.75
2023-04-03T15:47:05.040Z,102680.69
2023-04-03T15:49:35.141Z,102668.81
2023-04-03T15:52:02.773Z,102687.53
2023-04-03T15:54:31.002Z,102680.78
2023-04-03T15:56:59.338Z,102677.88
2023-04-03T15:59:26.806Z,102680.34
2023-04-03T16:01:54.587Z,102679.34
2023-04-03T16:04:23.554Z,102683.75
2023-04-03T16:06:51.885Z,102672.47
2023-04-03T16:09:19.478Z,102679.22
2023-04-03T16:11:46.924Z,102678.16
2023-04-03T16:14:14.331Z,102673.16
2023-04-03T16:16:41.946Z,102675.13
2023-04-03T16:19:10.898Z,102673.16
2023-04-03T16:21:39.850Z,102668.56
2023-04-03T16:24:07.565Z,102672.19
2023-04-03T16:26:35.033Z,102677.09
2023-04-03T16:29:02.469Z,102682.41
2023-04-03T16:31:30.317Z,102672.72
2023-04-03T16:33:58.245Z,102680.63
2023-04-03T16:36:26.163Z,102673.44
2023-04-03T16:38:54.972Z,102679.00
2023-04-03T16:41:22.564Z,102670.81
2023-04-03T16:43:50.958Z,102667.25
2023-04-03T16:46:18.489Z,102670.88
2023-04-03T16:48:45.900Z,102675.41
2023-04-03T16:51:14.056Z,102681.56
2023-04-03T16:53:41.666Z,102666.16
2023-04-03T16:56:10.469Z,102669.16
2023-04-03T16:58:37.919Z,102677.56
2023-04-03T17:01:13.171Z,102685.16
2023-04-03T17:03:41.212Z,102673.28
2023-04-03T17:06:08.910Z,102676.50
2023-04-03T17:08:36.577Z,102680.16
2023-04-03T17:11:04.045Z,102683.94
2023-04-03T17:13:34.696Z,102677.53
2023-04-03T17:16:05.680Z,102677.81
2023-04-03T17:18:34.148Z,102672.09
2023-04-03T17:21:02.523Z,102679.56
2023-04-03T17:23:30.487Z,102671.63
2023-04-03T17:25:58.212Z,102678.13
2023-04-03T17:28:28.656Z,102686.63
2023-04-03T17:30:59.066Z,102683.44
2023-04-03T17:33:28.352Z,102684.94
2023-04-03T17:35:58.324Z,102682.94
2023-04-03T17:38:25.933Z,102679.22
2023-04-03T17:40:53.410Z,102684.72
2023-04-03T17:43:20.940Z,102685.88
2023-04-03T17:45:48.495Z,102691.06
2023-04-03T17:48:17.256Z,102692.75
2023-04-03T17:50:44.675Z,102690.31
2023-04-03T17:53:12.135Z,102692.97
2023-04-03T17:55:40.122Z,102689.59
2023-04-03T17:58:07.827Z,102695.69
2023-04-03T18:00:35.222Z,102687.19
2023-04-03T18:03:03.616Z,102700.38
2023-04-03T18:05:32.627Z,102698.34
2023-04-03T18:08:01.924Z,102702.19
2023-04-03T18:10:30.196Z,102697.50
2023-04-03T18:12:58.171Z,102702.19
2023-04-03T18:15:25.936Z,102697.16
2023-04-03T18:17:56.616Z,102694.25
2023-04-03T18:20:24.140Z,102709.97
2023-04-03T18:22:53.147Z,102713.94
2023-04-03T18:25:20.977Z,102700.75
2023-04-03T18:27:49.722Z,102703.38
2023-04-03T18:30:18.837Z,102707.75
2023-04-03T18:32:46.377Z,102718.41
2023-04-03T18:35:13.979Z,102708.66
2023-04-03T18:37:41.479Z,102712.59
2023-04-03T18:40:11.896Z,102712.66
2023-04-03T18:42:41.495Z,102717.59
2023-04-03T18:45:12.393Z,102717.84
2023-04-03T18:47:40.710Z,102716.22
2023-04-03T18:50:09.710Z,102722.03
2023-04-03T18:52:37.150Z,102722.47
2023-04-03T18:55:05.068Z,102725.13
2023-04-03T18:57:34.061Z,102723.38
2023-04-03T19:00:01.821Z,102721.16
2023-04-03T19:02:29.817Z,102719.94
2023-04-03T19:04:57.671Z,102716.94
2023-04-03T19:07:25.225Z,102731.81
2023-04-03T19:09:52.910Z,102716.75
2023-04-03T19:12:20.885Z,102709.78
2023-04-03T19:14:49.711Z,102718.94
2023-04-03T19:17:17.499Z,102714.53
2023-04-03T19:19:45.277Z,102719.63
2023-04-03T19:22:12.744Z,102709.53
2023-04-03T19:24:40.159Z,102717.16
2023-04-03T19:27:07.601Z,102704.53
2023-04-03T19:29:35.205Z,102704.78
2023-04-03T19:32:03.985Z,102704.13
2023-04-03T19:34:31.470Z,102700.53
2023-04-03T19:36:59.097Z,102695.91
2023-04-03T19:39:29.034Z,102707.19
2023-04-03T19:41:56.492Z,102695.78
2023-04-03T19:44:23.962Z,102702.22
2023-04-03T19:46:51.805Z,102694.94
2023-04-03T19:49:21.791Z,102697.13
2023-04-03T19:51:49.266Z,102698.81
2023-04-03T19:54:16.682Z,102698.50
2023-04-03T19:56:44.143Z,102708.91
2023-04-03T19:59:11.842Z,102713.41
2023-04-03T20:01:39.362Z,102709.44
2023-04-03T20:04:06.885Z,102714.25
2023-04-03T20:06:36.758Z,102711.59
2023-04-03T20:09:04.729Z,102708.94
2023-04-03T20:11:32.130Z,102713.53
2023-04-03T20:13:59.523Z,102705.00
2023-04-03T20:16:28.186Z,102707.66
2023-04-03T20:18:56.631Z,102702.78
2023-04-03T20:21:31.869Z,102705.22
2023-04-03T20:24:01.468Z,102708.31
2023-04-03T20:26:31.718Z,102701.72
2023-04-03T20:29:03.388Z,102704.00
2023-04-03T20:31:33.485Z,102706.78
2023-04-03T20:34:01.440Z,102714.72
2023-04-03T20:36:30.896Z,102705.31
2023-04-03T20:38:59.819Z,102705.09
2023-04-03T20:41:27.415Z,102704.66
2023-04-03T20:43:54.901Z,102716.28
2023-04-03T20:46:25.440Z,102704.16
2023-04-03T20:48:53.579Z,102700.59
2023-04-03T20:51:22.105Z,102701.69
2023-04-03T20:53:49.626Z,102691.63
2023-04-03T20:56:18.443Z,102694.78
2023-04-03T20:58:47.221Z,102699.56
2023-04-03T21:01:17.150Z,102696.69
2023-04-03T21:03:46.227Z,102688.91
2023-04-03T21:06:51.699Z,102691.44
2023-04-03T21:09:56.731Z,102682.84
2023-04-03T21:13:01.898Z,102676.09
2023-04-03T21:15:47.454Z,102686.88
2023-04-03T21:18:40.164Z,102691.03
2023-04-03T21:21:08.429Z,102683.03
2023-04-03T21:23:35.865Z,102685.13
2023-04-03T21:26:03.353Z,102678.88
2023-04-03T21:28:31.646Z,102683.63
2023-04-03T21:30:59.097Z,102686.13
2023-04-03T21:33:30.270Z,102692.31
2023-04-03T21:35:59.801Z,102697.31
2023-04-03T21:38:27.524Z,102693.44
2023-04-03T21:40:57.494Z,102695.03
2023-04-03T21:43:25.015Z,102692.53
2023-04-03T21:45:54.289Z,102692.53
2023-04-03T21:48:23.648Z,102698.00
2023-04-03T21:50:53.636Z,102701.31
2023-04-03T21:53:22.520Z,102701.66
2023-04-03T21:55:57.244Z,102702.28
2023-04-03T21:58:30.399Z,102690.41
2023-04-03T22:00:57.945Z,102695.56
2023-04-03T22:03:25.757Z,102673.16
2023-04-03T22:05:54.519Z,102661.38
2023-04-03T22:08:21.976Z,102668.50
2023-04-03T22:10:49.622Z,102680.00
2023-04-03T22:13:17.045Z,102673.31
2023-04-03T22:15:48.248Z,102671.78
2023-04-03T22:18:15.741Z,102685.19
2023-04-03T22:20:44.251Z,102682.59
2023-04-03T22:23:13.009Z,102672.66
2023-04-03T22:25:40.442Z,102684.84
2023-04-03T22:28:07.968Z,102687.25
2023-04-03T22:30:36.182Z,102686.66
2023-04-03T22:33:03.670Z,102686.25
2023-04-03T22:35:31.454Z,102683.91
2023-04-03T22:37:59.338Z,102679.69
2023-04-03T22:40:28.109Z,102679.88
2023-04-03T22:42:55.510Z,102684.72
2023-04-03T22:45:22.914Z,102686.00
2023-04-03T22:47:50.454Z,102687.56
2023-04-03T22:50:17.968Z,102687.50
2023-04-03T22:52:45.421Z,102685.38
2023-04-03T22:55:19.082Z,102697.53
2023-04-03T22:57:48.636Z,102692.81
2023-04-03T23:00:17.458Z,102698.53
2023-04-03T23:02:44.900Z,102691.34
2023-04-03T23:05:12.356Z,102699.41
2023-04-03T23:07:39.822Z,102691.25
2023-04-03T23:10:08.059Z,102697.72
2023-04-03T23:12:38.208Z,102701.53
2023-04-03T23:15:08.232Z,102697.25
2023-04-03T23:17:37.079Z,102698.81
2023-04-03T23:20:05.297Z,102691.09
2023-04-03T23:22:32.758Z,102695.84
2023-04-03T23:25:00.146Z,102701.28
2023-04-03T23:27:27.797Z,102699.25
2023-04-03T23:29:55.609Z,102696.97
2023-04-03T23:32:24.394Z,102694.19
2023-04-03T23:34:51.820Z,102689.09
2023-04-03T23:37:19.229Z,102693.94
2023-04-03T23:39:46.646Z,102688.47
2023-04-03T23:42:14.134Z,102688.91
2023-04-03T23:44:41.558Z,102697.56
2023-04-03T23:47:08.950Z,102687.81
2023-04-03T23:49:38.327Z,102685.53
2023-04-03T23:52:06.163Z,102688.91
2023-04-03T23:54:33.609Z,102682.56
2023-04-03T23:57:00.994Z,102681.03
2023-04-03T23:59:30.754Z,102689.84
